createdAt,value
2019-03-27T00:00:16.008Z,11.95
2019-03-27T00:01:23.531Z,12.10
2019-03-27T00:02:31.375Z,10.53
2019-03-27T00:03:38.841Z,11.37
2019-03-27T00:04:46.681Z,9.20
2019-03-27T00:05:54.217Z,11.05
2019-03-27T00:07:02.401Z,10.47
2019-03-27T00:08:10.396Z,10.00
2019-03-27T00:09:17.964Z,11.70
2019-03-27T00:10:25.780Z,10.77
2019-03-27T00:11:33.313Z,9.83
2019-03-27T00:12:40.992Z,11.10
2019-03-27T00:13:48.501Z,11.57
2019-03-27T00:14:55.960Z,11.63
2019-03-27T00:16:03.863Z,10.83
2019-03-27T00:17:12.143Z,11.13
2019-03-27T00:18:19.668Z,10.23
2019-03-27T00:19:27.229Z,10.60
2019-03-27T00:20:34.758Z,10.53
2019-03-27T00:21:42.558Z,10.57
2019-03-27T00:22:50.419Z,10.00
2019-03-27T00:24:01.259Z,11.70
2019-03-27T00:25:09.792Z,10.60
2019-03-27T00:26:17.529Z,11.40
2019-03-27T00:27:25.673Z,9.50
2019-03-27T00:28:33.437Z,11.43
2019-03-27T00:29:41.212Z,10.80
2019-03-27T00:30:49.099Z,9.93
2019-03-27T00:31:57.050Z,11.18
2019-03-27T00:33:05.061Z,10.43
2019-03-27T00:34:12.956Z,10.00
2019-03-27T00:35:20.743Z,11.20
2019-03-27T00:36:28.350Z,10.90
2019-03-27T00:37:36.761Z,10.50
2019-03-27T00:38:44.652Z,11.70
2019-03-27T00:39:52.381Z,11.10
2019-03-27T00:41:00.602Z,10.80
2019-03-27T00:42:09.209Z,10.90
2019-03-27T00:43:17.238Z,11.03
2019-03-27T00:44:25.128Z,10.27
2019-03-27T00:45:33.159Z,11.07
2019-03-27T00:46:41.026Z,10.27
2019-03-27T00:47:48.488Z,11.73
2019-03-27T00:48:56.241Z,10.90
2019-03-27T00:50:03.741Z,10.80
2019-03-27T00:51:11.553Z,10.73
2019-03-27T00:52:19.079Z,10.73
2019-03-27T00:53:26.868Z,12.07
2019-03-27T00:54:34.728Z,9.70
2019-03-27T00:55:42.798Z,11.57
2019-03-27T00:56:50.604Z,11.57
2019-03-27T00:57:58.066Z,11.67
2019-03-27T00:59:06.836Z,11.80
2019-03-27T01:00:26.563Z,11.47
2019-03-27T01:01:34.055Z,11.27
2019-03-27T01:02:41.559Z,11.13
2019-03-27T01:03:49.088Z,10.60
2019-03-27T01:04:56.599Z,11.00
2019-03-27T01:06:04.713Z,8.97
2019-03-27T01:07:12.173Z,10.50
2019-03-27T01:08:20.026Z,11.10
2019-03-27T01:09:27.950Z,11.50
2019-03-27T01:10:35.440Z,12.33
2019-03-27T01:11:42.902Z,10.20
2019-03-27T01:12:50.430Z,9.87
2019-03-27T01:13:58.186Z,10.73
2019-03-27T01:15:06.232Z,11.57
2019-03-27T01:16:13.765Z,10.57
2019-03-27T01:17:21.269Z,10.07
2019-03-27T01:18:28.734Z,11.00
2019-03-27T01:19:36.218Z,9.97
2019-03-27T01:20:43.785Z,10.00
2019-03-27T01:21:51.209Z,11.60
2019-03-27T01:22:59.216Z,11.20
2019-03-27T01:24:07.003Z,10.63
2019-03-27T01:25:14.800Z,11.10
2019-03-27T01:26:22.276Z,11.87
2019-03-27T01:27:30.255Z,11.37
2019-03-27T01:28:37.871Z,11.33
2019-03-27T01:29:45.374Z,10.10
2019-03-27T01:30:53.159Z,10.33
2019-03-27T01:32:00.660Z,10.70
2019-03-27T01:33:08.176Z,10.20
2019-03-27T01:34:15.766Z,10.18
2019-03-27T01:35:23.329Z,8.80
2019-03-27T01:36:30.854Z,9.80
2019-03-27T01:37:38.760Z,8.80
2019-03-27T01:38:46.599Z,9.83
2019-03-27T01:39:54.129Z,8.93
2019-03-27T01:41:01.622Z,9.83
2019-03-27T01:42:10.480Z,10.13
2019-03-27T01:43:18.345Z,9.10
2019-03-27T01:44:26.081Z,8.50
2019-03-27T01:45:33.585Z,8.43
2019-03-27T01:46:41.391Z,8.43
2019-03-27T01:47:48.863Z,8.80
2019-03-27T01:48:56.681Z,8.60
2019-03-27T01:50:04.432Z,9.00
2019-03-27T01:51:11.961Z,8.53
2019-03-27T01:52:19.427Z,9.93
2019-03-27T01:53:26.928Z,8.90
2019-03-27T01:54:34.785Z,9.23
2019-03-27T01:55:42.767Z,8.60
2019-03-27T01:56:50.198Z,9.17
2019-03-27T01:57:57.705Z,9.43
2019-03-27T01:59:05.177Z,10.60
2019-03-27T02:00:13.292Z,8.80
2019-03-27T02:01:20.924Z,9.47
2019-03-27T02:02:28.656Z,7.80
2019-03-27T02:03:37.201Z,7.50
2019-03-27T02:04:44.683Z,7.70
2019-03-27T02:05:52.504Z,7.70
2019-03-27T02:07:00.007Z,8.47
2019-03-27T02:08:07.534Z,8.37
2019-03-27T02:09:15.018Z,8.37
2019-03-27T02:10:22.847Z,6.87
2019-03-27T02:11:30.604Z,8.10
2019-03-27T02:12:38.141Z,7.83
2019-03-27T02:13:45.606Z,8.07
2019-03-27T02:14:53.092Z,8.23
2019-03-27T02:16:07.054Z,9.30
2019-03-27T02:17:10.458Z,8.03
2019-03-27T02:18:17.955Z,8.87
2019-03-27T02:19:26.088Z,9.37
2019-03-27T02:20:34.338Z,7.93
2019-03-27T02:21:42.266Z,8.40
2019-03-27T02:22:49.778Z,8.73
2019-03-27T02:23:57.578Z,8.70
2019-03-27T02:25:05.369Z,8.03
2019-03-27T02:26:13.916Z,9.57
2019-03-27T02:27:21.523Z,8.70
2019-03-27T02:28:29.385Z,9.20
2019-03-27T02:29:36.853Z,9.00
2019-03-27T02:30:44.665Z,8.13
2019-03-27T02:31:52.566Z,9.57
2019-03-27T02:33:00.028Z,10.30
2019-03-27T02:34:07.625Z,10.33
2019-03-27T02:35:15.475Z,9.27
2019-03-27T02:36:23.401Z,8.23
2019-03-27T02:37:30.845Z,9.80
2019-03-27T02:38:38.313Z,9.10
2019-03-27T02:39:45.779Z,9.13
2019-03-27T02:40:53.318Z,8.67
2019-03-27T02:42:01.241Z,9.57
2019-03-27T02:43:09.323Z,10.47
2019-03-27T02:44:16.919Z,9.47
2019-03-27T02:45:24.397Z,10.80
2019-03-27T02:46:32.003Z,10.97
2019-03-27T02:47:39.451Z,11.37
2019-03-27T02:48:47.234Z,9.23
2019-03-27T02:49:54.722Z,10.80
2019-03-27T02:51:02.234Z,10.50
2019-03-27T02:52:09.713Z,10.68
2019-03-27T02:53:17.670Z,9.73
2019-03-27T02:54:25.868Z,9.10
2019-03-27T02:55:34.129Z,11.70
2019-03-27T02:56:41.614Z,9.63
2019-03-27T02:57:49.396Z,10.23
2019-03-27T02:58:56.918Z,10.68
2019-03-27T03:00:05.321Z,10.50
2019-03-27T03:01:12.823Z,11.50
2019-03-27T03:02:20.706Z,11.10
2019-03-27T03:03:28.264Z,10.03
2019-03-27T03:04:36.136Z,10.83
2019-03-27T03:05:44.065Z,10.90
2019-03-27T03:06:52.289Z,11.87
2019-03-27T03:08:00.564Z,10.90
2019-03-27T03:09:09.011Z,9.98
2019-03-27T03:10:17.136Z,10.85
2019-03-27T03:11:24.621Z,11.00
2019-03-27T03:12:32.337Z,10.63
2019-03-27T03:13:39.832Z,11.00
2019-03-27T03:14:47.605Z,10.80
2019-03-27T03:15:55.066Z,10.80
2019-03-27T03:17:02.596Z,10.30
2019-03-27T03:18:10.384Z,9.13
2019-03-27T03:19:17.881Z,9.68
2019-03-27T03:20:25.383Z,8.95
2019-03-27T03:21:32.854Z,8.70
2019-03-27T03:22:40.730Z,8.75
2019-03-27T03:23:48.301Z,8.53
2019-03-27T03:24:55.768Z,9.33
2019-03-27T03:26:03.650Z,9.80
2019-03-27T03:27:11.580Z,9.13
2019-03-27T03:28:19.423Z,8.83
2019-03-27T03:29:27.002Z,8.48
2019-03-27T03:30:34.608Z,8.53
2019-03-27T03:31:42.123Z,8.50
2019-03-27T03:32:49.613Z,9.67
2019-03-27T03:33:57.525Z,8.60
2019-03-27T03:35:05.254Z,9.83
2019-03-27T03:36:13.405Z,10.20
2019-03-27T03:37:20.867Z,9.25
2019-03-27T03:38:28.351Z,9.85
2019-03-27T03:39:36.051Z,10.90
2019-03-27T03:40:43.640Z,9.60
2019-03-27T03:41:51.507Z,9.70
2019-03-27T03:42:59.212Z,10.43
2019-03-27T03:44:06.841Z,9.30
2019-03-27T03:45:14.992Z,10.43
2019-03-27T03:46:22.477Z,8.23
2019-03-27T03:47:30.147Z,9.00
2019-03-27T03:48:37.960Z,8.93
2019-03-27T03:49:45.822Z,9.00
2019-03-27T03:50:56.782Z,8.30
2019-03-27T03:52:05.124Z,8.43
2019-03-27T03:53:15.033Z,8.28
2019-03-27T03:54:23.362Z,7.90
2019-03-27T03:55:32.544Z,6.60
2019-03-27T03:56:42.915Z,9.15
2019-03-27T03:57:51.094Z,9.07
2019-03-27T03:59:01.258Z,9.10
2019-03-27T04:00:09.424Z,7.78
2019-03-27T04:01:20.246Z,8.45
2019-03-27T04:02:32.614Z,9.93
2019-03-27T04:03:42.515Z,9.00
2019-03-27T04:04:52.954Z,11.05
2019-03-27T04:06:00.435Z,9.25
2019-03-27T04:07:08.237Z,9.73
2019-03-27T04:08:15.783Z,12.20
2019-03-27T04:09:23.625Z,11.40
2019-03-27T04:10:31.562Z,11.97
2019-03-27T04:11:39.014Z,11.38
2019-03-27T04:12:47.317Z,10.30
2019-03-27T04:13:56.054Z,12.15
2019-03-27T04:15:03.930Z,9.48
2019-03-27T04:16:11.452Z,10.95
2019-03-27T04:17:18.957Z,11.08
2019-03-27T04:18:26.737Z,10.18
2019-03-27T04:19:35.015Z,11.28
2019-03-27T04:20:42.928Z,11.20
2019-03-27T04:21:50.405Z,13.80
2019-03-27T04:22:57.886Z,12.00
2019-03-27T04:24:05.661Z,13.40
2019-03-27T04:25:13.281Z,13.60
2019-03-27T04:26:20.782Z,12.85
2019-03-27T04:27:28.946Z,13.88
2019-03-27T04:28:36.405Z,12.80
2019-03-27T04:29:44.721Z,14.33
2019-03-27T04:30:52.674Z,15.63
2019-03-27T04:32:00.211Z,14.43
2019-03-27T04:33:08.044Z,14.13
2019-03-27T04:34:15.948Z,14.85
2019-03-27T04:35:23.861Z,13.68
2019-03-27T04:36:31.745Z,13.65
2019-03-27T04:37:39.317Z,13.67
2019-03-27T04:38:47.125Z,16.77
2019-03-27T04:39:54.632Z,13.73
2019-03-27T04:41:02.793Z,15.83
2019-03-27T04:42:10.370Z,14.35
2019-03-27T04:43:18.659Z,16.47
2019-03-27T04:44:26.539Z,13.55
2019-03-27T04:45:34.216Z,15.40
2019-03-27T04:46:41.720Z,16.40
2019-03-27T04:47:49.285Z,18.98
2019-03-27T04:48:57.138Z,16.87
2019-03-27T04:50:05.043Z,15.70
2019-03-27T04:51:12.876Z,14.70
2019-03-27T04:52:20.601Z,14.80
2019-03-27T04:53:28.104Z,14.43
2019-03-27T04:54:35.684Z,14.53
2019-03-27T04:55:43.543Z,12.28
2019-03-27T04:56:51.405Z,13.43
2019-03-27T04:57:59.112Z,12.67
2019-03-27T04:59:07.053Z,12.73
2019-03-27T05:00:15.230Z,14.25
2019-03-27T05:01:23.483Z,13.50
2019-03-27T05:02:31.457Z,14.80
2019-03-27T05:03:39.305Z,16.45
2019-03-27T05:04:47.400Z,15.75
2019-03-27T05:05:54.884Z,16.52
2019-03-27T05:07:02.353Z,16.30
2019-03-27T05:08:09.826Z,17.85
2019-03-27T05:09:17.904Z,15.05
2019-03-27T05:10:25.393Z,18.12
2019-03-27T05:11:33.716Z,16.82
2019-03-27T05:12:41.353Z,17.25
2019-03-27T05:13:48.843Z,16.67
2019-03-27T05:14:56.751Z,18.10
2019-03-27T05:16:04.310Z,16.70
2019-03-27T05:17:11.832Z,16.35
2019-03-27T05:18:19.343Z,16.35
2019-03-27T05:19:26.853Z,17.37
2019-03-27T05:20:35.138Z,16.52
2019-03-27T05:21:42.649Z,17.42
2019-03-27T05:22:51.287Z,17.70
2019-03-27T05:23:58.905Z,16.10
2019-03-27T05:25:06.647Z,17.73
2019-03-27T05:26:14.524Z,18.17
2019-03-27T05:27:22.040Z,17.77
2019-03-27T05:28:29.504Z,19.45
2019-03-27T05:29:37.381Z,17.75
2019-03-27T05:30:44.955Z,20.63
2019-03-27T05:31:52.898Z,21.27
2019-03-27T05:33:00.801Z,21.25
2019-03-27T05:34:08.440Z,20.43
2019-03-27T05:35:16.321Z,19.50
2019-03-27T05:36:23.881Z,19.98
2019-03-27T05:37:31.761Z,19.82
2019-03-27T05:38:39.253Z,21.70
2019-03-27T05:39:46.893Z,20.12
2019-03-27T05:40:54.372Z,21.12
2019-03-27T05:42:02.260Z,21.77
2019-03-27T05:43:10.027Z,19.83
2019-03-27T05:44:17.547Z,18.90
2019-03-27T05:45:25.310Z,21.05
2019-03-27T05:46:33.114Z,22.48
2019-03-27T05:47:41.054Z,21.33
2019-03-27T05:48:48.619Z,21.55
2019-03-27T05:49:56.119Z,20.20
2019-03-27T05:51:03.647Z,18.55
2019-03-27T05:52:11.128Z,20.80
2019-03-27T05:53:19.308Z,21.27
2019-03-27T05:54:26.793Z,20.75
2019-03-27T05:55:34.407Z,21.33
2019-03-27T05:56:42.366Z,19.95
2019-03-27T05:57:50.361Z,19.60
2019-03-27T05:58:58.183Z,20.30
2019-03-27T06:00:06.467Z,19.27
2019-03-27T06:01:14.859Z,20.12
2019-03-27T06:02:22.349Z,20.07
2019-03-27T06:03:30.009Z,19.37
2019-03-27T06:04:37.456Z,19.77
2019-03-27T06:05:45.304Z,21.57
2019-03-27T06:06:52.838Z,21.10
2019-03-27T06:08:00.615Z,19.12
2019-03-27T06:09:09.523Z,22.03
2019-03-27T06:10:17.277Z,20.70
2019-03-27T06:11:25.111Z,21.17
2019-03-27T06:12:32.660Z,19.13
2019-03-27T06:13:40.526Z,21.43
2019-03-27T06:14:48.035Z,20.35
2019-03-27T06:15:55.529Z,21.10
2019-03-27T06:17:03.499Z,20.65
2019-03-27T06:18:13.323Z,20.70
2019-03-27T06:19:20.856Z,19.75
2019-03-27T06:20:28.409Z,20.57
2019-03-27T06:21:35.921Z,21.77
2019-03-27T06:22:43.391Z,20.70
2019-03-27T06:23:50.898Z,20.50
2019-03-27T06:24:58.372Z,20.48
2019-03-27T06:26:06.280Z,21.82
2019-03-27T06:27:13.726Z,20.70
2019-03-27T06:28:21.283Z,21.23
2019-03-27T06:29:28.785Z,20.13
2019-03-27T06:30:36.308Z,20.43
2019-03-27T06:31:43.848Z,21.33
2019-03-27T06:32:51.364Z,19.13
2019-03-27T06:33:58.976Z,20.10
2019-03-27T06:35:08.169Z,19.80
2019-03-27T06:36:16.676Z,19.52
2019-03-27T06:37:24.163Z,19.27
2019-03-27T06:38:32.004Z,19.92
2019-03-27T06:39:39.519Z,20.35
2019-03-27T06:40:47.785Z,21.12
2019-03-27T06:41:56.031Z,18.00
2019-03-27T06:43:22.708Z,17.87
2019-03-27T06:44:30.189Z,19.52
2019-03-27T06:45:37.727Z,17.77
2019-03-27T06:46:45.921Z,19.37
2019-03-27T06:47:53.433Z,17.77
2019-03-27T06:49:01.260Z,18.98
2019-03-27T06:50:09.295Z,20.70
2019-03-27T06:51:16.968Z,18.13
2019-03-27T06:52:24.737Z,17.30
2019-03-27T06:53:32.980Z,17.42
2019-03-27T06:54:40.473Z,16.07
2019-03-27T06:55:48.781Z,18.43
2019-03-27T06:56:56.292Z,16.50
2019-03-27T06:58:04.573Z,17.40
2019-03-27T06:59:12.394Z,16.13
2019-03-27T07:00:24.508Z,16.30
2019-03-27T07:01:32.390Z,17.15
2019-03-27T07:02:40.261Z,15.60
2019-03-27T07:03:48.150Z,16.47
2019-03-27T07:04:55.775Z,15.60
2019-03-27T07:06:03.277Z,16.55
2019-03-27T07:07:10.824Z,15.83
2019-03-27T07:08:18.579Z,16.00
2019-03-27T07:09:26.114Z,17.05
2019-03-27T07:10:36.026Z,16.70
2019-03-27T07:11:43.994Z,15.60
2019-03-27T07:12:52.495Z,15.27
2019-03-27T07:14:00.240Z,15.40
2019-03-27T07:15:08.941Z,15.73
2019-03-27T07:16:16.450Z,16.67
2019-03-27T07:17:23.943Z,16.40
2019-03-27T07:18:40.043Z,15.27
2019-03-27T07:19:40.729Z,16.00
2019-03-27T07:20:48.538Z,14.90
2019-03-27T07:21:56.163Z,14.30
2019-03-27T07:23:04.048Z,13.43
2019-03-27T07:24:11.579Z,13.13
2019-03-27T07:25:19.111Z,14.05
2019-03-27T07:26:26.637Z,14.23
2019-03-27T07:27:34.229Z,14.43
2019-03-27T07:28:42.119Z,13.97
2019-03-27T07:29:49.653Z,13.27
2019-03-27T07:30:57.115Z,14.57
2019-03-27T07:32:04.935Z,14.80
2019-03-27T07:33:12.474Z,15.30
2019-03-27T07:34:20.414Z,13.20
2019-03-27T07:35:27.902Z,13.50
2019-03-27T07:36:36.958Z,12.20
2019-03-27T07:37:44.883Z,11.37
2019-03-27T07:38:53.203Z,11.97
2019-03-27T07:40:00.728Z,12.27
2019-03-27T07:41:08.572Z,14.37
2019-03-27T07:42:16.104Z,13.03
2019-03-27T07:43:23.857Z,11.83
2019-03-27T07:44:32.062Z,11.63
2019-03-27T07:45:39.856Z,13.03
2019-03-27T07:46:47.359Z,13.10
2019-03-27T07:47:55.252Z,13.27
2019-03-27T07:49:02.810Z,13.33
2019-03-27T07:50:11.173Z,12.80
2019-03-27T07:51:19.067Z,11.30
2019-03-27T07:52:26.899Z,12.10
2019-03-27T07:53:34.445Z,11.87
2019-03-27T07:54:41.984Z,10.93
2019-03-27T07:55:49.949Z,12.83
2019-03-27T07:56:57.521Z,12.07
2019-03-27T07:58:05.168Z,13.93
2019-03-27T07:59:13.605Z,12.03
2019-03-27T08:00:22.951Z,12.87
2019-03-27T08:01:30.729Z,11.47
2019-03-27T08:02:38.219Z,11.13
2019-03-27T08:03:46.112Z,12.30
2019-03-27T08:04:53.611Z,11.07
2019-03-27T08:06:01.499Z,12.50
2019-03-27T08:07:09.393Z,11.77
2019-03-27T08:08:17.193Z,11.07
2019-03-27T08:09:24.726Z,11.03
2019-03-27T08:10:32.614Z,12.23
2019-03-27T08:11:40.570Z,11.33
2019-03-27T08:12:48.669Z,9.73
2019-03-27T08:13:56.112Z,9.43
2019-03-27T08:15:03.744Z,10.53
2019-03-27T08:16:11.296Z,11.37
2019-03-27T08:17:19.039Z,11.33
2019-03-27T08:18:26.974Z,10.50
2019-03-27T08:19:34.527Z,11.07
2019-03-27T08:20:42.019Z,10.00
2019-03-27T08:21:49.768Z,9.73
2019-03-27T08:22:57.639Z,10.70
2019-03-27T08:24:05.243Z,9.67
2019-03-27T08:25:12.922Z,8.93
2019-03-27T08:26:20.447Z,9.37
2019-03-27T08:27:28.190Z,8.47
2019-03-27T08:28:35.669Z,8.07
2019-03-27T08:29:43.274Z,9.50
2019-03-27T08:30:51.147Z,8.43
2019-03-27T08:31:59.017Z,7.80
2019-03-27T08:33:06.810Z,8.90
2019-03-27T08:34:14.307Z,7.83
2019-03-27T08:35:21.839Z,7.70
2019-03-27T08:36:29.332Z,7.73
2019-03-27T08:37:37.223Z,7.83
2019-03-27T08:38:45.091Z,8.50
2019-03-27T08:39:53.070Z,7.70
2019-03-27T08:41:00.653Z,7.50
2019-03-27T08:42:08.106Z,7.10
2019-03-27T08:43:21.077Z,7.10
2019-03-27T08:44:25.150Z,6.40
2019-03-27T08:45:32.848Z,6.10
2019-03-27T08:46:40.477Z,6.67
2019-03-27T08:47:48.656Z,5.80
2019-03-27T08:48:56.933Z,5.57
2019-03-27T08:50:05.348Z,5.63
2019-03-27T08:51:12.935Z,6.00
2019-03-27T08:52:20.422Z,5.50
2019-03-27T08:53:27.892Z,6.20
2019-03-27T08:54:35.429Z,5.43
2019-03-27T08:55:43.252Z,5.23
2019-03-27T08:56:51.643Z,5.53
2019-03-27T08:57:59.123Z,5.90
2019-03-27T08:59:06.618Z,5.37
2019-03-27T09:00:15.091Z,6.30
2019-03-27T09:01:22.983Z,6.30
2019-03-27T09:02:30.513Z,6.53
2019-03-27T09:03:38.383Z,6.40
2019-03-27T09:04:46.168Z,5.67
2019-03-27T09:05:53.733Z,5.10
2019-03-27T09:07:03.289Z,6.10
2019-03-27T09:08:11.195Z,5.17
2019-03-27T09:09:18.672Z,4.90
2019-03-27T09:10:26.349Z,5.87
2019-03-27T09:11:34.439Z,5.93
2019-03-27T09:12:42.257Z,5.67
2019-03-27T09:13:50.638Z,6.47
2019-03-27T09:14:58.177Z,5.60
2019-03-27T09:16:06.236Z,4.97
2019-03-27T09:17:13.798Z,5.20
2019-03-27T09:18:21.266Z,4.77
2019-03-27T09:19:35.644Z,4.60
2019-03-27T09:20:38.204Z,4.20
2019-03-27T09:21:45.717Z,4.67
2019-03-27T09:22:53.225Z,4.50
2019-03-27T09:24:00.795Z,4.63
2019-03-27T09:25:08.710Z,5.00
2019-03-27T09:26:16.159Z,4.90
2019-03-27T09:27:23.671Z,4.00
2019-03-27T09:28:31.554Z,3.90
2019-03-27T09:29:39.091Z,4.77
2019-03-27T09:30:47.005Z,3.70
2019-03-27T09:31:54.555Z,4.27
2019-03-27T09:33:02.072Z,4.20
2019-03-27T09:34:10.242Z,3.80
2019-03-27T09:35:17.827Z,4.63
2019-03-27T09:36:25.406Z,4.33
2019-03-27T09:37:33.033Z,5.03
2019-03-27T09:38:40.514Z,5.00
2019-03-27T09:39:48.034Z,4.10
2019-03-27T09:40:55.528Z,3.60
2019-03-27T09:42:03.194Z,4.73
2019-03-27T09:43:11.170Z,5.10
2019-03-27T09:44:19.676Z,3.57
2019-03-27T09:45:27.333Z,3.30
2019-03-27T09:46:34.866Z,4.10
2019-03-27T09:47:42.396Z,3.60
2019-03-27T09:48:49.909Z,3.80
2019-03-27T09:49:57.894Z,3.53
2019-03-27T09:51:05.391Z,3.90
2019-03-27T09:52:12.861Z,3.87
2019-03-27T09:53:20.359Z,3.97
2019-03-27T09:54:27.836Z,3.03
2019-03-27T09:55:35.709Z,2.50
2019-03-27T09:56:43.239Z,2.20
2019-03-27T09:57:50.692Z,2.47
2019-03-27T09:58:58.213Z,1.90
2019-03-27T10:00:07.513Z,2.50
2019-03-27T10:01:15.085Z,2.70
2019-03-27T10:02:23.082Z,2.13
2019-03-27T10:03:30.587Z,2.17
2019-03-27T10:04:38.553Z,2.23
2019-03-27T10:05:46.089Z,2.53
2019-03-27T10:06:53.709Z,2.50
2019-03-27T10:08:01.225Z,2.03
2019-03-27T10:09:10.624Z,2.23
2019-03-27T10:10:18.283Z,2.50
2019-03-27T10:11:26.053Z,2.10
2019-03-27T10:12:34.085Z,1.70
2019-03-27T10:13:41.571Z,2.00
2019-03-27T10:14:49.087Z,2.10
2019-03-27T10:15:57.099Z,1.90
2019-03-27T10:17:04.665Z,2.20
2019-03-27T10:18:13.181Z,1.90
2019-03-27T10:19:20.700Z,2.10
2019-03-27T10:20:28.260Z,1.90
2019-03-27T10:21:35.792Z,1.70
2019-03-27T10:22:43.599Z,1.80
2019-03-27T10:23:51.427Z,1.83
2019-03-27T10:24:58.946Z,2.03
2019-03-27T10:26:06.521Z,1.47
2019-03-27T10:27:14.736Z,1.30
2019-03-27T10:28:22.329Z,1.63
2019-03-27T10:29:29.826Z,1.63
2019-03-27T10:30:37.676Z,1.53
2019-03-27T10:31:45.296Z,1.33
2019-03-27T10:32:53.124Z,1.83
2019-03-27T10:34:01.158Z,1.37
2019-03-27T10:35:09.607Z,1.53
2019-03-27T10:36:17.173Z,1.70
2019-03-27T10:37:24.650Z,2.27
2019-03-27T10:38:32.215Z,1.33
2019-03-27T10:39:39.849Z,2.57
2019-03-27T10:40:47.897Z,1.60
2019-03-27T10:41:55.858Z,1.40
2019-03-27T10:43:03.408Z,2.03
2019-03-27T10:44:10.980Z,1.87
2019-03-27T10:45:18.782Z,1.83
2019-03-27T10:46:26.264Z,2.10
2019-03-27T10:47:34.695Z,2.00
2019-03-27T10:48:52.558Z,1.90
2019-03-27T10:49:51.797Z,2.27
2019-03-27T10:51:00.140Z,2.00
2019-03-27T10:52:07.867Z,2.33
2019-03-27T10:53:15.783Z,2.27
2019-03-27T10:54:23.690Z,2.30
2019-03-27T10:55:34.461Z,1.90
2019-03-27T10:56:41.394Z,3.10
2019-03-27T10:57:48.922Z,2.03
2019-03-27T10:58:57.259Z,2.27
2019-03-27T11:00:06.082Z,2.50
2019-03-27T11:01:13.637Z,2.30
2019-03-27T11:02:21.111Z,2.17
2019-03-27T11:03:28.573Z,2.30
2019-03-27T11:04:36.233Z,2.40
2019-03-27T11:05:43.842Z,2.90
2019-03-27T11:06:52.065Z,2.90
2019-03-27T11:07:59.527Z,2.37
2019-03-27T11:09:10.379Z,2.20
2019-03-27T11:10:18.139Z,2.03
2019-03-27T11:11:25.637Z,2.10
2019-03-27T11:12:33.305Z,1.93
2019-03-27T11:13:41.107Z,2.10
2019-03-27T11:14:48.562Z,2.27
2019-03-27T11:15:56.057Z,1.60
2019-03-27T11:17:03.563Z,2.17
2019-03-27T11:18:11.483Z,2.50
2019-03-27T11:19:19.290Z,2.30
2019-03-27T11:20:31.173Z,1.83
2019-03-27T11:21:36.422Z,2.00
2019-03-27T11:22:44.105Z,1.97
2019-03-27T11:23:52.237Z,2.33
2019-03-27T11:25:00.108Z,2.30
2019-03-27T11:26:07.952Z,2.03
2019-03-27T11:27:15.760Z,1.70
2019-03-27T11:28:23.612Z,2.10
2019-03-27T11:29:31.127Z,2.80
2019-03-27T11:30:41.751Z,2.47
2019-03-27T11:31:49.595Z,1.97
2019-03-27T11:32:57.478Z,2.80
2019-03-27T11:34:05.033Z,2.13
2019-03-27T11:35:12.971Z,2.20
2019-03-27T11:36:20.493Z,2.80
2019-03-27T11:37:28.311Z,2.70
2019-03-27T11:38:37.506Z,3.13
2019-03-27T11:39:45.234Z,2.97
2019-03-27T11:40:52.757Z,2.63
2019-03-27T11:42:01.014Z,2.83
2019-03-27T11:43:09.123Z,2.50
2019-03-27T11:44:17.245Z,2.60
2019-03-27T11:45:24.761Z,2.60
2019-03-27T11:46:32.576Z,2.77
2019-03-27T11:47:40.068Z,1.70
2019-03-27T11:48:47.555Z,2.60
2019-03-27T11:49:55.009Z,3.03
2019-03-27T11:51:03.177Z,3.10
2019-03-27T11:52:11.203Z,2.67
2019-03-27T11:53:19.019Z,2.70
2019-03-27T11:54:26.754Z,2.17
2019-03-27T11:55:34.327Z,2.80
2019-03-27T11:56:41.784Z,2.93
2019-03-27T11:57:50.070Z,2.60
2019-03-27T11:58:57.628Z,2.43
2019-03-27T12:00:06.246Z,3.10
2019-03-27T12:01:13.690Z,2.57
2019-03-27T12:02:21.178Z,2.43
2019-03-27T12:03:30.018Z,3.40
2019-03-27T12:04:37.873Z,2.30
2019-03-27T12:05:45.818Z,3.00
2019-03-27T12:06:53.620Z,2.73
2019-03-27T12:08:01.176Z,2.60
2019-03-27T12:09:10.473Z,3.07
2019-03-27T12:10:18.388Z,3.20
2019-03-27T12:11:25.952Z,2.70
2019-03-27T12:12:33.444Z,2.87
2019-03-27T12:13:40.953Z,2.47
2019-03-27T12:14:48.806Z,2.73
2019-03-27T12:15:56.643Z,3.10
2019-03-27T12:17:04.519Z,2.53
2019-03-27T12:18:16.821Z,2.43
2019-03-27T12:19:24.688Z,2.17
2019-03-27T12:20:32.566Z,2.30
2019-03-27T12:21:40.059Z,2.40
2019-03-27T12:22:57.320Z,2.33
2019-03-27T12:23:58.415Z,2.17
2019-03-27T12:25:06.894Z,2.10
2019-03-27T12:26:14.376Z,2.30
2019-03-27T12:27:22.215Z,3.00
2019-03-27T12:28:30.436Z,2.30
2019-03-27T12:29:38.533Z,2.23
2019-03-27T12:30:46.097Z,2.57
2019-03-27T12:31:54.076Z,2.30
2019-03-27T12:33:02.395Z,2.50
2019-03-27T12:34:10.216Z,2.30
2019-03-27T12:35:18.236Z,2.37
2019-03-27T12:36:25.709Z,2.83
2019-03-27T12:37:33.678Z,2.53
2019-03-27T12:38:41.749Z,2.77
2019-03-27T12:39:49.308Z,2.20
2019-03-27T12:40:56.842Z,2.70
2019-03-27T12:42:04.420Z,2.83
2019-03-27T12:43:11.919Z,3.00
2019-03-27T12:44:19.814Z,2.37
2019-03-27T12:45:27.569Z,2.43
2019-03-27T12:46:35.549Z,2.37
2019-03-27T12:47:43.383Z,2.37
2019-03-27T12:48:51.083Z,2.50
2019-03-27T12:49:58.589Z,2.30
2019-03-27T12:51:12.702Z,2.20
2019-03-27T12:52:16.114Z,2.40
2019-03-27T12:53:23.956Z,2.20
2019-03-27T12:54:31.637Z,2.03
2019-03-27T12:55:39.388Z,3.17
2019-03-27T12:56:46.882Z,2.50
2019-03-27T12:57:54.351Z,2.47
2019-03-27T12:59:01.825Z,2.50
2019-03-27T13:00:11.505Z,2.33
2019-03-27T13:01:19.323Z,2.60
2019-03-27T13:02:26.864Z,2.40
2019-03-27T13:03:35.031Z,2.90
2019-03-27T13:04:42.527Z,2.00
2019-03-27T13:05:50.802Z,2.30
2019-03-27T13:06:58.702Z,2.30
2019-03-27T13:08:06.444Z,2.70
2019-03-27T13:09:14.790Z,2.30
2019-03-27T13:10:22.215Z,2.43
2019-03-27T13:11:30.552Z,2.27
2019-03-27T13:12:38.463Z,2.50
2019-03-27T13:13:46.241Z,2.10
2019-03-27T13:14:53.727Z,2.03
2019-03-27T13:16:01.247Z,1.97
2019-03-27T13:17:09.512Z,2.23
2019-03-27T13:18:17.412Z,2.20
2019-03-27T13:19:25.345Z,1.93
2019-03-27T13:20:32.799Z,2.77
2019-03-27T13:21:40.839Z,2.43
2019-03-27T13:22:48.515Z,1.60
2019-03-27T13:23:55.969Z,2.00
2019-03-27T13:25:04.192Z,2.27
2019-03-27T13:26:11.698Z,2.23
2019-03-27T13:27:19.171Z,1.87
2019-03-27T13:28:26.672Z,1.97
2019-03-27T13:29:35.086Z,2.00
2019-03-27T13:30:43.033Z,1.93
2019-03-27T13:31:50.477Z,1.80
2019-03-27T13:32:57.935Z,1.90
2019-03-27T13:34:05.499Z,2.30
2019-03-27T13:35:13.632Z,2.10
2019-03-27T13:36:21.122Z,3.20
2019-03-27T13:37:28.603Z,2.77
2019-03-27T13:38:36.228Z,3.00
2019-03-27T13:39:44.089Z,2.70
2019-03-27T13:40:51.635Z,3.80
2019-03-27T13:41:59.479Z,3.73
2019-03-27T13:43:07.174Z,3.33
2019-03-27T13:44:14.987Z,2.97
2019-03-27T13:45:23.115Z,3.43
2019-03-27T13:46:31.407Z,3.60
2019-03-27T13:47:38.899Z,2.60
2019-03-27T13:48:46.611Z,3.17
2019-03-27T13:49:54.093Z,3.50
2019-03-27T13:51:01.937Z,2.93
2019-03-27T13:52:09.720Z,2.60
2019-03-27T13:53:18.151Z,2.93
2019-03-27T13:54:25.647Z,3.47
2019-03-27T13:55:35.070Z,3.43
2019-03-27T13:56:42.752Z,2.70
2019-03-27T13:57:50.213Z,3.37
2019-03-27T13:58:57.675Z,3.03
2019-03-27T14:00:06.503Z,3.00
2019-03-27T14:01:14.648Z,3.47
2019-03-27T14:02:22.452Z,3.53
2019-03-27T14:03:29.978Z,3.70
2019-03-27T14:04:37.428Z,4.10
2019-03-27T14:05:45.139Z,3.37
2019-03-27T14:06:52.645Z,2.90
2019-03-27T14:08:00.164Z,2.57
2019-03-27T14:09:09.853Z,2.83
2019-03-27T14:10:18.152Z,3.23
2019-03-27T14:11:26.697Z,3.80
2019-03-27T14:12:34.252Z,3.60
2019-03-27T14:13:43.371Z,2.80
2019-03-27T14:14:51.475Z,3.20
2019-03-27T14:15:59.002Z,3.30
2019-03-27T14:17:06.619Z,3.30
2019-03-27T14:18:14.104Z,3.30
2019-03-27T14:19:21.647Z,3.20
2019-03-27T14:20:29.130Z,3.40
2019-03-27T14:21:36.790Z,2.73
2019-03-27T14:22:44.303Z,3.60
2019-03-27T14:23:51.786Z,3.40
2019-03-27T14:24:59.381Z,3.37
2019-03-27T14:26:06.842Z,3.20
2019-03-27T14:27:14.935Z,3.50
2019-03-27T14:28:22.371Z,3.00
2019-03-27T14:29:29.893Z,2.90
2019-03-27T14:30:57.640Z,3.73
2019-03-27T14:32:05.104Z,3.47
2019-03-27T14:33:12.586Z,3.20
2019-03-27T14:34:20.735Z,4.47
2019-03-27T14:35:29.172Z,4.80
2019-03-27T14:36:36.750Z,4.30
2019-03-27T14:37:44.217Z,3.70
2019-03-27T14:38:52.010Z,4.00
2019-03-27T14:39:59.562Z,3.73
2019-03-27T14:41:07.860Z,4.20
2019-03-27T14:42:16.366Z,3.70
2019-03-27T14:43:26.986Z,3.93
2019-03-27T14:44:34.009Z,4.00
2019-03-27T14:45:41.618Z,4.03
2019-03-27T14:46:49.155Z,3.90
2019-03-27T14:47:56.982Z,4.20
2019-03-27T14:49:04.920Z,3.50
2019-03-27T14:50:13.188Z,3.87
2019-03-27T14:51:21.035Z,3.73